Impacts METAR Board INFO
IDs:

KMIA - Miami Intl, FL, US

Updated at: 2142 UTC 23 Jan 2018
Potential Impact None Slight Moderate High
Time23/09Z 23/10Z 23/11Z 23/12Z 23/13Z 23/14Z 23/15Z 23/16Z 23/17Z 23/18Z 23/19Z 23/20Z 23/21Z
VIS9 9 10 10 10 10 10 10 10 10 10 10 10
CIG140 140 150 30 150 150 22 18 150 160 160 250 250
CoverOVCOVCOVCOVCOVCOVCBKNBKNBKNBKNBKNBKNBKN
FltCatVFRVFRVFRMVFRVFRVFRMVFRMVFRVFRVFRVFRVFRVFR
WX--------------------------
WDir110130130120120140140160160140130130130
WSpd6 7 7 6 6 7 12 10 10 10 10 11 10
WGst-- -- -- -- -- -- -- -- 17 -- -- 18 --
Raw hourly METARs
KMIA 230853Z 11006KT 9SM SCT018 BKN140 OVC250 23/22 A3003 RMK AO2 SLP169 T02330217 55006 $
KMIA 230953Z 13007KT 9SM SCT018 BKN140 OVC250 23/22 A3003 RMK AO2 SLP169 T02330217 $
KMIA 231102Z 13007KT 10SM FEW012 FEW022 OVC150 24/22 A3004 RMK AO2 T02390222 $
KMIA 231153Z 12006KT 10SM SCT015 BKN030 OVC150 24/22 A3006 RMK AO2 SLP178 T02390222 10239 20228 53009 $
KMIA 231253Z 12006KT 10SM FEW015 FEW030 FEW090 OVC150 24/22 A3007 RMK AO2 SLP183 T02390222 $
KMIA 231353Z COR 14007KT 10SM FEW015 FEW028 FEW090 OVC150 25/23 A3009 RMK AO2 SLP188 T02500228
KMIA 231453Z 14012KT 10SM SCT013 BKN022 BKN090 BKN150 BKN250 26/22 A3009 RMK AO2 SLP188 T02610222 51009
KMIA 231553Z 16010KT 10SM BKN018 BKN090 BKN150 BKN250 27/22 A3008 RMK AO2 SLP186 T02720222
KMIA 231653Z 16010G17KT 10SM SCT020 BKN150 BKN250 28/22 A3007 RMK AO2 SLP182 T02780217
KMIA 231753Z 14010KT 10SM FEW022 BKN160 BKN250 28/21 A3004 RMK AO2 SLP173 T02780211 10278 20233 58015
KMIA 231853Z 13010KT 10SM FEW023 BKN160 BKN250 28/22 A3001 RMK AO2 SLP163 T02830217
KMIA 231953Z 13011G18KT 10SM FEW023CB SCT160 BKN250 27/21 A3000 RMK AO2 SLP159 CB W-NW MOV STNRY T02720211
KMIA 232053Z 13010KT 10SM FEW023 SCT120 BKN250 27/22 A3000 RMK AO2 SLP160 CB DSIPTD T02720217 55013